メインページ
METAR-TAF:

METAR-TAF

空港 :

Portage la Prairie, マニトバ州, カナダ

緯度: 49-54N, 経度: 098-16W, 海抜: 269m

現時点の気象観測

当レポートは12時間17分前の23:00(UTC)に作成
南/南西の風 3kt
気温 2°C
湿度 55%
気圧 1012 hPa
視程: 24.1km
高度24000ftの千切れ雲あり

METAR: CYPG 212300Z 20003KT 15SM BKN240 02/M06 A2988 RMK CI5 LAST OBS/NEXT 241200 UTC SLP133

時間: 05:17 (11:17 UTC)

予報

当レポートは17時間47分前の17:30(UTC)に作成
予報は21日の 18時(UTC)から 22日の 06時(UTC)まで有効
西/南西の風 10kt、最大20ktの突風を伴う
視程: 10km
高度24000ftの雲はほとんどない
21日の 22時(UTC)から 21日の 24時(UTC)まで徐々に
西/南西の風 10kt

TAF: CYPG 211730Z 2118/2206 25010G20KT P6SM FEW240 BECMG 2122/2124 24010KT RMK NXT FCST BY 220000Z

4,000以上の空港の気象観測と天気予報(METAR報とTAF報)

利用可能な観測所は地図上に黄色い丸と赤い丸で示す。

丸の上にカーソルを重ねると観測所名を参照できる。

次にクリックすると気象観測と天気予報を参照できる。

マップの切り替え:黒色「×」印の緑ボタンをクリックして拡大、「-」印の緑ボタンをクリックして縮小、緑色の三角印をクリックして隣りの地図に切り替え


METAR-TAF: